Pagrindinis puslapis
METAR-TAF:

METAR-TAF

Oro uostai :

Buckland, Aliaska, Jungtinės Amerikos Valstijos

platuma: 65-58-56N, ilguma: 161-09-07W, Aukštis: 7 m

Dabartinis oras

Ataskaita buvo paskelbta 33 minutes, ne 07:56 UTC
Vėjas 3 kt iš Šiaurės/Šiaurės Rytų
Temperatūra 7°C
Drėgmė 100%
Slėgis 1004 hPa
Matomumas: 16.1 km
Giedras dangus

METAR: PABL 160756Z AUTO 02003KT 10SM CLR 07/07 A2966 RMK AO2 SLP045 T00720067 401390056

Laikas: 00:29 (08:29 UTC)


TAF: trūkstamas

Orai ataskaitas ir orų prognozės (METAR, TAF).

turimą stotys yra geltonos ir raudonos taškus žemėlapyje.

Perkelti pele per norėdami pamatyti stoties vardą.

Tada spustelėkite, norėdami matyti oro stebėjimo ir prognozės.

Norėdami pakeisti žemėlapį: spustelėkite ant žalios mygtukų su juodo kryžiaus žemyn,; žalią mygtuką su brūkšneliu, jei norite nutolinti; arba žalių rodyklių gretimoms žemėlapius.


METAR-TAF: